Time;durP1;ratioP1;P1;durP2;ratioP2;P2;SDS_P1;SDS_P2;PMS_P1;PMS_P2;Temp;Humidity;BMP_temperature;BMP_pressure;BME280_temperature;BME280_humidity;BME280_pressure;Samples;Min_cycle;Max_cycle;Signal;HPM_P1;HPM_P2
2023/10/16 00:02:12;;;;;;;3.17;1.77;;;;;;;5.84;95.61;101385.69;5039041;28;20202;-81
2023/10/16 00:04:43;;;;;;;7.03;1.80;;;;;;;5.83;95.37;101380.44;5027779;28;20260;-82
2023/10/16 00:07:13;;;;;;;7.47;2.10;;;;;;;5.78;95.45;101385.84;5045255;27;20214;-81
2023/10/16 00:09:40;;;;;;;6.33;1.77;;;;;;;5.79;95.68;101387.59;5033699;28;20214;-82
2023/10/16 00:12:08;;;;;;;4.87;1.80;;;;;;;5.76;95.76;101385.03;5032210;27;20271;-80
2023/10/16 00:14:35;;;;;;;6.20;1.77;;;;;;;5.72;96.06;101386.06;5039095;27;20210;-81
2023/10/16 00:17:03;;;;;;;7.03;1.73;;;;;;;5.74;95.98;101388.63;5040596;28;20206;-81
2023/10/16 00:19:33;;;;;;;5.57;2.40;;;;;;;5.73;96.16;101386.94;5050284;27;20222;-81
2023/10/16 00:22:00;;;;;;;4.37;1.67;;;;;;;5.73;96.21;101392.22;5033199;27;20207;-82
2023/10/16 00:24:29;;;;;;;5.27;2.37;;;;;;;5.74;95.91;101388.63;5035734;27;20721;-82
2023/10/16 00:27:00;;;;;;;3.90;1.87;;;;;;;5.72;96.19;101382.56;5034145;27;20262;-82
2023/10/16 00:29:35;;;;;;;4.37;2.03;;;;;;;5.71;96.43;101380.84;5041646;28;20198;-82
2023/10/16 00:32:07;;;;;;;4.47;1.87;;;;;;;5.69;96.33;101385.31;5031668;28;20202;-82
2023/10/16 00:34:33;;;;;;;5.07;2.17;;;;;;;5.66;96.32;101390.69;5026472;28;20201;-82
2023/10/16 00:37:01;;;;;;;3.40;1.83;;;;;;;5.67;96.59;101384.47;5032458;28;20201;-81
2023/10/16 00:39:29;;;;;;;4.00;1.70;;;;;;;5.64;96.51;101390.72;5034021;28;20214;-81
2023/10/16 00:41:58;;;;;;;5.10;2.30;;;;;;;5.64;96.95;101388.06;5026876;28;20828;-82
2023/10/16 00:44:24;;;;;;;6.37;1.80;;;;;;;5.63;96.67;101382.84;5040379;28;20229;-81
2023/10/16 00:46:53;;;;;;;5.60;1.50;;;;;;;5.60;97.05;101391.72;5039954;28;20206;-81
2023/10/16 00:49:20;;;;;;;5.27;1.83;;;;;;;5.58;96.96;101378.56;5030360;28;20727;-81
2023/10/16 00:51:48;;;;;;;3.83;1.80;;;;;;;5.59;97.53;101382.06;5043055;28;20303;-81
2023/10/16 00:54:19;;;;;;;5.13;1.70;;;;;;;5.56;97.57;101375.09;5027677;28;20211;-81
2023/10/16 00:56:49;;;;;;;4.03;1.60;;;;;;;5.56;97.46;101377.72;5036048;28;20283;-81
2023/10/16 00:59:16;;;;;;;3.57;1.67;;;;;;;5.56;97.82;101374.22;5028426;28;20338;-82
2023/10/16 01:01:43;;;;;;;4.40;1.67;;;;;;;5.57;97.67;101368.03;5032096;28;20209;-81
2023/10/16 01:04:10;;;;;;;4.97;1.60;;;;;;;5.51;97.44;101365.59;5039527;28;20210;-81
2023/10/16 01:06:37;;;;;;;4.63;1.73;;;;;;;5.53;97.61;101369.94;5039325;28;20217;-81
2023/10/16 01:09:09;;;;;;;5.53;1.80;;;;;;;5.52;97.81;101373.47;5039501;28;20694;-81
2023/10/16 01:11:37;;;;;;;5.83;2.17;;;;;;;5.53;98.00;101369.06;5041851;28;20777;-81
2023/10/16 01:14:05;;;;;;;6.17;1.67;;;;;;;5.56;97.90;101367.16;5027201;28;20206;-81
2023/10/16 01:16:32;;;;;;;4.30;1.87;;;;;;;5.54;98.09;101361.09;5042446;28;20209;-81
2023/10/16 01:19:00;;;;;;;4.47;1.43;;;;;;;5.62;98.22;101374.03;5044540;28;20650;-81
2023/10/16 01:21:27;;;;;;;5.17;1.57;;;;;;;5.64;98.04;101371.34;5035542;28;20293;-81
2023/10/16 01:23:55;;;;;;;5.60;1.40;;;;;;;5.65;97.89;101360.75;5036073;28;20655;-81
2023/10/16 01:26:24;;;;;;;6.47;1.83;;;;;;;5.66;98.28;101366.91;5040634;28;20327;-81
2023/10/16 01:28:51;;;;;;;3.80;1.47;;;;;;;5.68;98.44;101363.28;5052334;28;20229;-82
2023/10/16 01:31:19;;;;;;;5.50;1.57;;;;;;;5.73;98.60;101363.16;5044282;28;20233;-81
2023/10/16 01:33:46;;;;;;;5.50;1.70;;;;;;;5.74;98.84;101367.50;5039105;28;20738;-81
2023/10/16 01:36:13;;;;;;;5.43;2.00;;;;;;;5.72;98.17;101369.34;5036942;28;20306;-81
2023/10/16 01:38:40;;;;;;;4.87;2.20;;;;;;;5.77;98.39;101368.28;5034783;28;20206;-82
2023/10/16 01:41:09;;;;;;;4.50;1.80;;;;;;;5.78;98.49;101372.66;5039600;28;20233;-81
2023/10/16 01:43:36;;;;;;;5.03;2.20;;;;;;;5.78;98.75;101369.13;5034879;28;20300;-82
2023/10/16 01:46:07;;;;;;;5.50;2.33;;;;;;;5.80;98.70;101367.31;5034147;28;20194;-81
2023/10/16 01:48:34;;;;;;;5.10;1.77;;;;;;;5.82;98.53;101368.13;5035907;28;20244;-81
2023/10/16 01:51:01;;;;;;;3.33;1.60;;;;;;;5.83;98.42;101368.09;5031816;28;20221;-81
2023/10/16 01:53:32;;;;;;;6.93;2.13;;;;;;;5.85;98.60;101373.31;5027703;28;20252;-81
2023/10/16 01:56:04;;;;;;;3.77;1.93;;;;;;;5.85;98.58;101371.53;5032077;28;21730;-82
2023/10/16 01:58:32;;;;;;;3.90;1.77;;;;;;;5.87;98.13;101367.06;5034429;28;20197;-82
2023/10/16 02:00:59;;;;;;;5.17;2.10;;;;;;;5.88;98.35;101366.19;5023410;28;20230;-81
2023/10/16 02:03:26;;;;;;;6.57;2.37;;;;;;;5.90;98.00;101361.72;5031469;28;20210;-81
2023/10/16 02:05:53;;;;;;;5.97;2.07;;;;;;;5.91;97.34;101359.94;5040274;28;20205;-81
2023/10/16 02:08:20;;;;;;;6.50;1.97;;;;;;;5.89;97.39;101349.41;5037879;27;20241;-82
2023/10/16 02:10:48;;;;;;;3.73;1.53;;;;;;;5.83;97.60;101351.34;5031246;27;20214;-82
2023/10/16 02:13:15;;;;;;;5.97;2.07;;;;;;;5.82;97.60;101350.50;5030807;27;20772;-81
2023/10/16 02:15:42;;;;;;;4.17;1.70;;;;;;;5.83;97.31;101351.34;5025716;28;20673;-81
2023/10/16 02:18:18;;;;;;;6.27;2.07;;;;;;;5.79;97.36;101350.59;5032682;28;20214;-81
2023/10/16 02:20:45;;;;;;;3.90;2.57;;;;;;;5.77;97.20;101347.13;5040204;27;20225;-81
2023/10/16 02:23:11;;;;;;;3.53;1.80;;;;;;;5.76;97.48;101347.16;5061358;27;20760;-80
2023/10/16 02:25:38;;;;;;;4.90;1.57;;;;;;;5.79;97.12;101355.00;5040978;27;20210;-81
2023/10/16 02:28:07;;;;;;;4.83;1.60;;;;;;;5.77;97.40;101354.19;5040302;27;20264;-81
2023/10/16 02:30:38;;;;;;;5.37;1.90;;;;;;;5.74;97.40;101352.50;5042444;27;20234;-80
2023/10/16 02:33:18;;;;;;;3.47;1.87;;;;;;;5.71;97.44;101357.91;5034578;27;20224;-81
2023/10/16 02:35:48;;;;;;;3.90;2.03;;;;;;;5.71;96.89;101362.34;5028325;27;20202;-81
2023/10/16 02:38:23;;;;;;;7.10;2.00;;;;;;;5.69;97.35;101359.75;5054277;27;20210;-81
2023/10/16 02:40:53;;;;;;;4.20;2.10;;;;;;;5.68;97.01;101360.66;5029354;28;20217;-81
2023/10/16 02:43:20;;;;;;;4.93;2.10;;;;;;;5.67;97.60;101358.91;5038055;27;20218;-81
2023/10/16 02:45:51;;;;;;;6.13;2.47;;;;;;;5.64;97.90;101358.16;5036483;28;20230;-81
2023/10/16 02:48:20;;;;;;;3.43;1.90;;;;;;;5.62;97.86;101358.19;5041469;27;20214;-81
2023/10/16 02:50:50;;;;;;;5.27;2.20;;;;;;;5.62;97.98;101357.31;5039621;27;20290;-80
2023/10/16 02:53:21;;;;;;;4.23;1.70;;;;;;;5.61;98.02;101348.53;5028386;28;20207;-81
2023/10/16 02:55:53;;;;;;;6.70;2.57;;;;;;;5.61;98.10;101352.94;5036854;27;20203;-81
2023/10/16 02:58:22;;;;;;;5.40;2.53;;;;;;;5.58;98.08;101341.56;5052210;27;20191;-81
2023/10/16 03:00:53;;;;;;;4.53;2.17;;;;;;;5.54;98.09;101347.03;5054359;27;20282;-81
2023/10/16 03:03:21;;;;;;;5.00;2.10;;;;;;;5.53;97.92;101346.16;5031870;28;20293;-81
2023/10/16 03:05:49;;;;;;;3.33;2.27;;;;;;;5.52;98.47;101351.47;5074847;27;20195;-81
2023/10/16 03:08:18;;;;;;;4.70;1.90;;;;;;;5.49;98.75;101344.50;5037434;28;20309;-81
2023/10/16 03:10:45;;;;;;;6.43;1.90;;;;;;;5.49;98.70;101343.66;5025126;28;20757;-81
2023/10/16 03:13:14;;;;;;;5.17;2.30;;;;;;;5.48;99.01;101349.84;5031017;28;20217;-80
2023/10/16 03:15:42;;;;;;;3.60;2.00;;;;;;;5.47;99.01;101341.03;5030108;28;20293;-81
2023/10/16 03:18:16;;;;;;;6.60;2.20;;;;;;;5.47;99.24;101341.03;5067268;27;20205;-81
2023/10/16 03:20:45;;;;;;;2.87;1.80;;;;;;;5.48;99.19;101342.78;5032600;28;20229;-81
2023/10/16 03:23:12;;;;;;;4.23;2.00;;;;;;;5.47;99.20;101338.41;5031724;28;20590;-81
2023/10/16 03:25:54;;;;;;;3.83;2.10;;;;;;;5.47;99.05;101341.03;5085563;27;20206;-81
2023/10/16 03:28:21;;;;;;;4.90;2.27;;;;;;;5.44;99.27;101340.28;5027865;27;20230;-80
2023/10/16 03:30:49;;;;;;;7.70;2.40;;;;;;;5.45;99.29;101337.59;5034341;28;20256;-81
2023/10/16 03:33:15;;;;;;;5.27;2.83;;;;;;;5.46;99.48;101341.09;5035149;27;20206;-82
2023/10/16 03:35:45;;;;;;;5.80;2.30;;;;;;;5.45;99.51;101342.00;5050261;27;20218;-81
2023/10/16 03:38:11;;;;;;;4.60;2.27;;;;;;;5.42;99.82;101345.59;5034681;27;20205;-81
2023/10/16 03:40:38;;;;;;;7.07;2.87;;;;;;;5.42;99.87;101350.88;5050484;27;20316;-81
2023/10/16 03:43:05;;;;;;;6.47;2.23;;;;;;;5.44;99.83;101343.78;5061773;27;20217;-81
2023/10/16 03:45:32;;;;;;;4.27;2.50;;;;;;;5.44;99.88;101341.13;5048067;27;20229;-82
2023/10/16 03:48:00;;;;;;;5.83;2.53;;;;;;;5.41;99.85;101343.88;5041292;27;20207;-81
2023/10/16 03:50:34;;;;;;;4.77;3.03;;;;;;;5.41;99.97;101340.38;5037958;27;20222;-81
2023/10/16 03:53:02;;;;;;;9.60;3.13;;;;;;;5.39;100.00;101340.41;5032266;27;20202;-81
2023/10/16 03:55:31;;;;;;;3.97;2.43;;;;;;;5.42;100.00;101342.09;5029408;27;20206;-81
2023/10/16 03:57:58;;;;;;;4.93;2.87;;;;;;;5.41;100.00;101343.88;5030498;28;20669;-81
2023/10/16 04:00:27;;;;;;;6.73;2.87;;;;;;;5.38;100.00;101341.31;5047717;27;20242;-80
2023/10/16 04:02:59;;;;;;;5.90;3.40;;;;;;;5.37;100.00;101341.41;5038700;27;20262;-80
2023/10/16 04:05:33;;;;;;;6.73;3.20;;;;;;;5.41;100.00;101351.78;5043838;27;20860;-81
2023/10/16 04:08:01;;;;;;;6.70;3.20;;;;;;;5.38;100.00;101349.25;5022140;28;20202;-80
2023/10/16 04:10:29;;;;;;;8.57;3.10;;;;;;;5.40;100.00;101360.63;5038230;27;20226;-80
2023/10/16 04:12:56;;;;;;;12.43;3.50;;;;;;;5.39;100.00;101355.38;5035117;28;20221;-80
2023/10/16 04:15:48;;;;;;;6.87;3.47;;;;;;;5.39;100.00;101361.53;5029328;27;20218;-82
2023/10/16 04:18:27;;;;;;;3.80;3.00;;;;;;;5.39;100.00;101366.81;5043660;27;20297;-81
2023/10/16 04:21:09;;;;;;;5.17;2.80;;;;;;;5.41;100.00;101364.13;5044942;27;20845;-81
2023/10/16 04:23:37;;;;;;;5.53;3.60;;;;;;;5.43;100.00;101362.31;5035126;28;20569;-81
2023/10/16 04:31:44;;;;;;;5.77;3.23;;;;;;;5.49;100.00;101359.50;5047006;27;20234;-81
2023/10/16 04:34:24;;;;;;;5.97;3.27;;;;;;;5.47;100.00;101348.97;5026181;27;20207;-81
2023/10/16 04:36:52;;;;;;;4.67;3.07;;;;;;;5.52;100.00;101346.19;5062184;27;20195;-82
2023/10/16 04:40:28;;;;;;;8.20;3.93;;;;;;;5.52;100.00;101349.69;5046886;27;20274;-81
2023/10/16 04:45:24;;;;;;;5.87;3.53;;;;;;;5.56;100.00;101348.66;5036614;27;20737;-81
2023/10/16 04:47:56;;;;;;;5.93;3.23;;;;;;;5.59;100.00;101348.56;5027705;28;20627;-80
2023/10/16 04:50:29;;;;;;;8.77;7.83;;;;;;;5.62;100.00;101352.03;5031466;28;20233;-80
2023/10/16 04:53:07;;;;;;;7.63;4.03;;;;;;;5.63;100.00;101352.00;5023877;28;20202;-81
2023/10/16 04:55:54;;;;;;;9.03;5.00;;;;;;;5.65;100.00;101351.94;5032242;28;20224;-80
2023/10/16 04:58:38;;;;;;;7.47;4.17;;;;;;;5.66;100.00;101354.53;5042592;28;20298;-81
2023/10/16 05:01:32;;;;;;;9.33;4.70;;;;;;;5.69;100.00;101356.22;5037717;28;20258;-80
2023/10/16 05:06:52;;;;;;;9.63;5.67;;;;;;;5.69;100.00;101350.94;5028106;28;20197;-80
2023/10/16 05:20:52;;;;;;;5.13;4.00;;;;;;;5.74;100.00;101344.56;5040792;28;20230;-81
2023/10/16 06:15:20;;;;;;;5.43;3.67;;;;;;;6.20;100.00;101359.84;5040235;27;20204;-82
2023/10/16 06:17:47;;;;;;;5.73;3.40;;;;;;;6.23;99.97;101370.31;5070490;27;20194;-82
2023/10/16 06:20:20;;;;;;;5.77;3.30;;;;;;;6.26;99.77;101364.06;5067418;27;20222;-83
2023/10/16 06:22:51;;;;;;;5.27;3.20;;;;;;;6.31;99.80;101366.53;5065664;27;20295;-81
2023/10/16 06:25:19;;;;;;;7.23;3.20;;;;;;;6.34;100.00;101364.63;5051275;27;20217;-82
2023/10/16 06:27:46;;;;;;;7.33;3.50;;;;;;;6.39;99.22;101369.78;5076289;27;20246;-82
2023/10/16 06:30:18;;;;;;;7.13;3.80;;;;;;;6.38;99.44;101370.69;5035394;27;20230;-83
2023/10/16 06:32:49;;;;;;;6.83;3.60;;;;;;;6.37;99.51;101372.47;5060634;27;20217;-82
2023/10/16 06:35:18;;;;;;;7.47;3.80;;;;;;;6.37;99.38;101383.06;5062066;27;20255;-83
2023/10/16 06:37:51;;;;;;;6.50;4.00;;;;;;;6.40;99.39;101385.59;5047144;27;20199;-82
2023/10/16 06:40:24;;;;;;;5.07;4.03;;;;;;;6.44;99.36;101376.66;5045773;27;20570;-83
2023/10/16 06:42:54;;;;;;;6.50;3.97;;;;;;;6.45;99.58;101380.16;5059167;27;20263;-82
2023/10/16 06:45:40;;;;;;;5.57;4.03;;;;;;;6.51;99.42;101380.78;5035157;28;20725;-83
2023/10/16 06:48:09;;;;;;;8.60;4.03;;;;;;;6.54;99.20;101382.47;5057182;27;20197;-82
2023/10/16 06:50:42;;;;;;;5.97;3.50;;;;;;;6.54;98.82;101380.69;5032881;28;20764;-82
2023/10/16 06:53:09;;;;;;;6.07;3.93;;;;;;;6.58;98.89;101382.31;5032686;28;20208;-83
2023/10/16 06:55:35;;;;;;;5.20;3.60;;;;;;;6.60;98.94;101383.13;5054281;27;20222;-82
2023/10/16 06:58:01;;;;;;;6.57;4.10;;;;;;;6.68;99.09;101381.97;5032695;28;20203;-83
2023/10/16 07:00:32;;;;;;;5.70;4.23;;;;;;;6.70;99.04;101385.44;5055634;27;20226;-82
2023/10/16 07:03:01;;;;;;;8.73;4.23;;;;;;;6.73;99.61;101385.34;5053253;27;20242;-82
2023/10/16 07:05:42;;;;;;;6.50;3.90;;;;;;;6.74;99.26;101385.28;5034880;28;20392;-81
2023/10/16 07:08:10;;;;;;;6.37;3.87;;;;;;;6.76;99.31;101378.16;5054620;27;20202;-82
2023/10/16 07:10:40;;;;;;;5.00;3.70;;;;;;;6.81;99.21;101378.84;5052145;27;20274;-82
2023/10/16 07:13:07;;;;;;;7.27;3.87;;;;;;;6.82;98.66;101380.56;5033799;28;20302;-81
2023/10/16 07:15:34;;;;;;;6.83;5.57;;;;;;;6.81;98.47;101381.47;5049812;27;20693;-82
2023/10/16 07:18:05;;;;;;;5.37;4.00;;;;;;;6.80;98.58;101371.84;5061207;27;20210;-83
2023/10/16 07:20:31;;;;;;;4.67;3.73;;;;;;;6.82;99.15;101382.34;5034571;27;20226;-83
2023/10/16 07:22:59;;;;;;;5.00;3.70;;;;;;;6.88;99.46;101380.34;5034444;28;20203;-83
2023/10/16 07:25:37;;;;;;;6.03;4.00;;;;;;;6.95;99.85;101379.22;5043682;27;20212;-82
2023/10/16 07:28:08;;;;;;;6.47;4.03;;;;;;;7.04;100.00;101385.06;5041871;27;20202;-82
2023/10/16 07:30:36;;;;;;;4.77;3.73;;;;;;;7.10;100.00;101382.22;5033117;28;20747;-83
2023/10/16 07:33:02;;;;;;;10.37;4.13;;;;;;;7.20;100.00;101389.75;5031796;28;20657;-82
2023/10/16 07:35:29;;;;;;;4.57;3.73;;;;;;;7.29;100.00;101373.50;5035630;28;20217;-82
2023/10/16 07:37:55;;;;;;;7.70;4.03;;;;;;;7.40;100.00;101377.53;5052017;27;20198;-82
2023/10/16 07:40:23;;;;;;;8.30;3.53;;;;;;;7.47;100.00;101387.84;5040954;27;20222;-84
2023/10/16 07:42:53;;;;;;;5.10;3.70;;;;;;;7.59;99.19;101390.00;5044893;27;20642;-82
2023/10/16 07:45:20;;;;;;;3.50;3.10;;;;;;;7.65;98.17;101391.56;5055481;27;20246;-83
2023/10/16 07:47:48;;;;;;;5.27;3.57;;;;;;;7.69;97.96;101390.53;5070331;27;20203;-83
2023/10/16 07:50:15;;;;;;;7.23;4.33;;;;;;;7.71;96.74;101390.44;5038736;27;20264;-82
2023/10/16 07:52:42;;;;;;;7.23;3.60;;;;;;;7.71;96.40;101391.28;5040425;27;20209;-83
2023/10/16 07:55:18;;;;;;;5.37;3.20;;;;;;;7.81;97.51;101390.03;5029128;27;20201;-83
2023/10/16 07:57:44;;;;;;;5.77;3.77;;;;;;;7.92;98.11;101393.09;5033410;28;20224;-83
2023/10/16 08:00:14;;;;;;;5.17;3.60;;;;;;;8.02;97.19;101388.28;5036789;27;20222;-81
2023/10/16 08:02:45;;;;;;;6.13;3.77;;;;;;;8.10;96.63;101383.53;5054335;27;20641;-83
2023/10/16 08:05:15;;;;;;;5.10;3.60;;;;;;;8.20;95.36;101390.19;5031666;28;20289;-82
2023/10/16 08:07:47;;;;;;;5.50;3.73;;;;;;;8.26;94.52;101389.03;5036176;27;20198;-83
2023/10/16 08:10:41;;;;;;;4.87;3.10;;;;;;;8.27;94.04;101390.78;5038955;27;20230;-82
2023/10/16 08:13:12;;;;;;;5.07;3.13;;;;;;;8.28;92.93;101387.19;5035666;27;20675;-82
2023/10/16 08:15:44;;;;;;;6.00;3.57;;;;;;;8.32;93.01;101395.00;5027775;28;20224;-82
2023/10/16 08:18:12;;;;;;;5.37;3.70;;;;;;;8.40;92.68;101396.47;5049658;27;20237;-84
2023/10/16 08:20:50;;;;;;;5.77;3.50;;;;;;;8.40;92.25;101392.03;5071659;27;20587;-82
2023/10/16 08:23:16;;;;;;;4.57;3.40;;;;;;;8.42;92.19;101390.16;5034520;27;20681;-83
2023/10/16 08:25:43;;;;;;;7.30;4.00;;;;;;;8.44;91.49;101388.31;5033517;27;20206;-81
2023/10/16 08:28:20;;;;;;;4.63;3.77;;;;;;;8.50;91.77;101395.16;5033549;27;20217;-81
2023/10/16 08:30:53;;;;;;;4.60;3.53;;;;;;;8.59;91.11;101394.78;5038758;27;20233;-81
2023/10/16 08:33:30;;;;;;;6.93;3.60;;;;;;;8.66;91.03;101402.38;5034182;28;20648;-81
2023/10/16 08:35:58;;;;;;;6.20;4.00;;;;;;;8.77;90.48;101393.97;5066278;27;20194;-81
2023/10/16 08:38:26;;;;;;;4.10;3.70;;;;;;;8.88;91.10;101397.00;5029798;28;20255;-82
2023/10/16 08:40:57;;;;;;;5.37;3.90;;;;;;;8.95;89.23;101405.56;5044122;28;20289;-82
2023/10/16 08:43:39;;;;;;;5.60;3.63;;;;;;;9.02;89.32;101413.19;5029070;28;20215;-82
2023/10/16 08:46:18;;;;;;;5.10;4.03;;;;;;;9.14;88.82;101416.22;5035400;28;20237;-81
2023/10/16 08:48:45;;;;;;;5.17;3.37;;;;;;;9.20;87.83;101408.84;5041830;27;20550;-82
2023/10/16 08:51:12;;;;;;;6.70;4.13;;;;;;;9.23;86.67;101405.19;5035185;28;20237;-82
2023/10/16 08:53:42;;;;;;;5.47;3.73;;;;;;;9.29;86.16;101400.47;5034094;28;20209;-82
2023/10/16 08:56:08;;;;;;;4.70;3.63;;;;;;;9.40;86.28;101399.94;5031070;28;20211;-81
2023/10/16 08:58:39;;;;;;;5.10;3.77;;;;;;;9.45;86.38;101407.72;5035974;28;20289;-81
2023/10/16 09:01:08;;;;;;;6.20;4.10;;;;;;;9.54;86.84;101404.59;5033925;28;20234;-82
2023/10/16 09:03:44;;;;;;;6.37;4.13;;;;;;;9.61;85.37;101411.38;5035780;28;20198;-80
2023/10/16 09:06:13;;;;;;;5.23;3.73;;;;;;;9.68;85.44;101403.00;5024071;28;20255;-81
2023/10/16 09:08:41;;;;;;;5.83;3.33;;;;;;;9.70;84.05;101401.16;5054678;28;20200;-82
2023/10/16 09:11:08;;;;;;;4.90;3.63;;;;;;;9.67;83.65;101411.94;5027262;28;20237;-81
2023/10/16 09:13:36;;;;;;;9.47;4.77;;;;;;;9.65;83.59;101403.19;5039889;28;20213;-81
2023/10/16 09:16:07;;;;;;;8.47;4.13;;;;;;;9.65;83.86;101408.50;5036033;28;20217;-82
2023/10/16 09:18:35;;;;;;;7.27;4.00;;;;;;;9.66;83.98;101407.56;5033291;27;20213;-82
2023/10/16 09:21:02;;;;;;;7.80;4.63;;;;;;;9.78;84.53;101410.56;5037518;27;20228;-82
2023/10/16 09:23:36;;;;;;;7.60;4.27;;;;;;;9.91;83.96;101409.03;5036765;28;20273;-82
2023/10/16 09:26:06;;;;;;;6.03;4.27;;;;;;;9.97;83.58;101409.63;5043293;27;20601;-82
2023/10/16 09:28:35;;;;;;;6.03;4.27;;;;;;;9.99;82.41;101412.19;5039998;27;20198;-82
2023/10/16 09:31:06;;;;;;;4.60;3.47;;;;;;;10.04;82.92;101415.47;5035908;27;20238;-81
2023/10/16 09:33:35;;;;;;;7.20;4.47;;;;;;;10.04;82.36;101412.81;5035428;28;20679;-83
2023/10/16 09:36:17;;;;;;;7.33;4.07;;;;;;;10.06;82.25;101411.81;5036042;28;20203;-82
2023/10/16 09:38:45;;;;;;;5.87;4.07;;;;;;;10.12;82.84;101410.66;5036346;27;20262;-81
2023/10/16 09:44:07;;;;;;;5.97;4.73;;;;;;;10.34;81.92;101405.16;5033659;27;20218;-82
2023/10/16 09:49:22;;;;;;;6.77;4.20;;;;;;;10.56;82.14;101404.94;5034037;28;20297;-79
2023/10/16 09:51:49;;;;;;;5.53;3.90;;;;;;;10.63;80.99;101403.66;5031591;27;20200;-81
2023/10/16 09:54:15;;;;;;;7.97;4.07;;;;;;;10.69;80.78;101406.03;5031583;27;20237;-82
2023/10/16 09:56:45;;;;;;;5.13;3.83;;;;;;;10.77;81.21;101406.47;5049417;27;20283;-79
2023/10/16 09:59:22;;;;;;;5.97;4.10;;;;;;;10.88;81.44;101397.94;5023514;28;20221;-82
2023/10/16 10:01:51;;;;;;;5.83;3.00;;;;;;;10.93;80.77;101399.38;5034277;27;20209;-82
2023/10/16 10:04:24;;;;;;;4.00;3.00;;;;;;;10.93;79.21;101401.19;5045709;27;20209;-80
2023/10/16 10:06:55;;;;;;;2.97;2.47;;;;;;;10.90;78.29;101394.25;5033897;27;20197;-81
2023/10/16 10:09:40;;;;;;;4.43;2.90;;;;;;;10.92;78.65;101403.03;5048253;27;20250;-79
2023/10/16 10:12:22;;;;;;;2.67;1.93;;;;;;;10.97;78.27;101403.63;5039772;27;20208;-80
2023/10/16 10:15:04;;;;;;;4.50;1.97;;;;;;;10.97;78.10;101408.09;5044568;27;20194;-80
2023/10/16 10:17:33;;;;;;;4.83;2.03;;;;;;;10.99;77.49;101409.75;5040355;27;20201;-81
2023/10/16 10:20:08;;;;;;;2.40;2.20;;;;;;;10.99;77.70;101395.56;5029174;28;20233;-81
2023/10/16 10:22:46;;;;;;;;;;;;;;;;;;;;;
2023/10/16 10:31:50;;;;;;;4.90;1.60;;;;;;;11.24;79.73;101406.63;4989907;28;20611;-80
2023/10/16 10:34:22;;;;;;;2.07;1.70;;;;;;;11.23;80.25;101402.25;5039452;27;20247;-79
2023/10/16 10:36:51;;;;;;;2.07;1.37;;;;;;;11.22;79.91;101402.31;5040205;28;20289;-79
2023/10/16 10:39:39;;;;;;;1.97;1.40;;;;;;;11.17;79.54;101399.91;5035678;27;20597;-80
2023/10/16 10:42:10;;;;;;;3.13;1.60;;;;;;;11.10;80.00;101390.53;5044801;27;20741;-80
2023/10/16 10:44:39;;;;;;;2.13;1.60;;;;;;;11.10;81.22;101393.19;5034603;28;20712;-79
2023/10/16 10:47:19;;;;;;;2.37;2.00;;;;;;;11.12;81.67;101394.81;5040109;28;20200;-80
2023/10/16 10:49:45;;;;;;;2.40;1.53;;;;;;;11.11;81.69;101385.09;5040938;27;20233;-80
2023/10/16 10:52:15;;;;;;;4.60;1.47;;;;;;;11.14;81.06;101389.41;5042523;27;20207;-81
2023/10/16 10:54:43;;;;;;;3.17;1.33;;;;;;;11.17;80.58;101391.03;5052119;27;20208;-80
2023/10/16 10:57:16;;;;;;;3.70;1.27;;;;;;;11.15;80.61;101388.44;5043963;27;20258;-79
2023/10/16 10:59:47;;;;;;;3.40;1.73;;;;;;;11.17;80.23;101385.72;5046515;27;20224;-79
2023/10/16 11:02:48;;;;;;;4.53;1.30;;;;;;;11.19;80.43;101381.16;5055477;27;20266;-80
2023/10/16 11:05:22;;;;;;;2.43;1.20;;;;;;;11.24;81.00;101371.09;5040625;27;20313;-79
2023/10/16 11:08:17;;;;;;;2.60;1.60;;;;;;;11.24;80.59;101376.44;5036124;27;20572;-79
2023/10/16 11:10:47;;;;;;;2.80;1.57;;;;;;;11.19;80.27;101382.03;5086336;27;20222;-81
2023/10/16 11:13:14;;;;;;;3.67;2.03;;;;;;;11.18;80.00;101374.09;5059274;27;20724;-80
2023/10/16 11:15:46;;;;;;;1.93;1.37;;;;;;;11.12;79.91;101380.63;5035687;27;20202;-81
2023/10/16 11:18:13;;;;;;;4.13;1.70;;;;;;;11.07;80.59;101377.34;5042939;27;20206;-81
2023/10/16 11:20:45;;;;;;;4.10;1.20;;;;;;;11.04;81.04;101378.38;5057860;27;20221;-81
2023/10/16 11:23:14;;;;;;;2.63;1.20;;;;;;;11.02;81.20;101374.94;5049554;27;20207;-80
2023/10/16 11:25:44;;;;;;;3.10;1.20;;;;;;;11.08;81.31;101377.28;5026163;28;20584;-82
2023/10/16 11:28:17;;;;;;;1.97;1.13;;;;;;;11.12;80.97;101376.16;5043071;27;20687;-80
2023/10/16 11:30:45;;;;;;;2.20;1.30;;;;;;;11.17;80.99;101372.38;5065026;27;20230;-81
2023/10/16 11:33:12;;;;;;;3.67;1.40;;;;;;;11.21;80.74;101372.13;5047356;27;20216;-81
2023/10/16 11:35:43;;;;;;;2.67;1.20;;;;;;;11.24;81.68;101368.44;5090993;27;20233;-81
2023/10/16 11:38:19;;;;;;;4.63;1.47;;;;;;;11.27;81.89;101373.63;5067073;27;20201;-81
2023/10/16 11:40:47;;;;;;;1.10;1.00;;;;;;;11.28;81.54;101368.19;5060119;27;20794;-81
2023/10/16 11:43:19;;;;;;;2.47;1.23;;;;;;;11.28;80.67;101364.66;5057627;27;20875;-81
2023/10/16 11:45:53;;;;;;;3.40;1.13;;;;;;;11.29;80.33;101377.03;5066861;27;20216;-82
2023/10/16 11:48:26;;;;;;;0.73;0.73;;;;;;;11.28;78.74;101372.69;5032621;28;20209;-80
2023/10/16 11:51:06;;;;;;;1.33;0.70;;;;;;;11.23;78.49;101366.72;5030547;28;20266;-81
2023/10/16 11:53:34;;;;;;;2.10;0.80;;;;;;;11.20;78.57;101370.41;5037061;28;20213;-81
2023/10/16 11:56:01;;;;;;;1.30;0.60;;;;;;;11.21;78.09;101374.81;5050887;27;20212;-81
2023/10/16 11:58:31;;;;;;;4.77;0.77;;;;;;;11.22;77.47;101365.84;5056320;27;20613;-82
2023/10/16 12:01:08;;;;;;;1.50;0.93;;;;;;;11.25;76.92;101370.16;5053851;27;20229;-81
2023/10/16 12:03:37;;;;;;;1.10;1.00;;;;;;;11.28;77.01;101365.53;5049503;27;20293;-82
2023/10/16 12:06:09;;;;;;;2.40;1.20;;;;;;;11.29;76.98;101361.03;5049560;27;20222;-81
2023/10/16 12:08:40;;;;;;;2.47;1.40;;;;;;;11.34;77.17;101353.66;5047584;27;20199;-81
2023/10/16 12:11:07;;;;;;;2.30;1.17;;;;;;;11.40;77.04;101350.66;5051095;27;20263;-80
2023/10/16 12:13:34;;;;;;;2.57;1.03;;;;;;;11.48;76.85;101343.94;5055744;27;20212;-81
2023/10/16 12:16:00;;;;;;;3.47;1.80;;;;;;;11.58;76.97;101341.63;5063477;27;20207;-81
2023/10/16 12:18:31;;;;;;;2.13;1.00;;;;;;;11.70;76.22;101353.41;5042197;27;20225;-81
2023/10/16 12:21:04;;;;;;;1.80;1.07;;;;;;;11.79;76.43;101348.44;5057730;27;20225;-81
2023/10/16 12:23:33;;;;;;;1.93;1.10;;;;;;;11.91;75.86;101352.19;5044005;27;20212;-81
2023/10/16 12:26:01;;;;;;;3.07;1.20;;;;;;;12.01;74.89;101341.84;5036281;28;20230;-80
2023/10/16 12:28:30;;;;;;;2.70;1.03;;;;;;;12.08;73.59;101345.88;5040984;27;20210;-79
2023/10/16 12:30:57;;;;;;;2.10;1.10;;;;;;;12.11;73.60;101335.88;5058279;27;20262;-80
2023/10/16 12:33:25;;;;;;;3.53;1.07;;;;;;;12.12;72.86;101347.44;5064908;27;20259;-80
2023/10/16 12:35:54;;;;;;;1.80;0.97;;;;;;;12.14;73.21;101346.41;5046294;27;20293;-81
2023/10/16 12:38:22;;;;;;;1.60;1.10;;;;;;;12.19;72.81;101348.78;5029017;28;20209;-81
2023/10/16 12:40:53;;;;;;;3.40;1.10;;;;;;;12.21;72.40;101343.34;5035625;28;20761;-81
2023/10/16 12:43:21;;;;;;;2.07;0.83;;;;;;;12.25;72.54;101351.09;5043776;27;20221;-81
2023/10/16 12:45:50;;;;;;;4.20;1.00;;;;;;;12.27;72.41;101341.19;5036348;27;20547;-81
2023/10/16 12:48:18;;;;;;;2.00;0.90;;;;;;;12.22;72.96;101345.91;5046293;27;20226;-81
2023/10/16 12:50:47;;;;;;;0.93;0.70;;;;;;;12.18;75.17;101355.91;5040974;28;20295;-81
2023/10/16 12:53:14;;;;;;;1.60;0.77;;;;;;;12.10;75.29;101349.31;5033707;28;20690;-83
2023/10/16 12:55:40;;;;;;;1.73;0.60;;;;;;;12.02;77.09;101351.56;5040519;28;20272;-82
2023/10/16 12:58:10;;;;;;;1.63;0.60;;;;;;;11.96;78.57;101346.59;5054398;28;20231;-81
2023/10/16 13:00:39;;;;;;;2.00;0.60;;;;;;;11.90;78.58;101354.97;5045594;28;20222;-81
2023/10/16 13:03:13;;;;;;;1.27;0.70;;;;;;;11.85;78.66;101355.22;5028213;28;20206;-81
2023/10/16 13:05:40;;;;;;;1.57;0.70;;;;;;;11.78;78.85;101354.72;5026113;28;20215;-81
2023/10/16 13:08:07;;;;;;;0.87;0.70;;;;;;;11.75;79.37;101352.19;5033943;28;20263;-81
2023/10/16 13:10:35;;;;;;;2.60;0.90;;;;;;;11.71;79.48;101355.13;5033231;28;20237;-82
2023/10/16 13:13:04;;;;;;;2.60;0.60;;;;;;;11.68;79.83;101356.16;5041381;28;20211;-81
2023/10/16 13:15:31;;;;;;;2.80;0.70;;;;;;;11.64;79.45;101348.44;5058310;28;20289;-83